Time;durP1;ratioP1;P1;durP2;ratioP2;P2;SDS_P1;SDS_P2;PMS_P1;PMS_P2;Temp;Humidity;BMP_temperature;BMP_pressure;BME280_temperature;BME280_humidity;BME280_pressure;Samples;Min_cycle;Max_cycle;Signal;HPM_P1;HPM_P2
2023/11/01 00:01:59;;;;;;;3.40;1.60;;;11.80;79.30;;;;;;5015576;28;20193;-75
2023/11/01 00:04:25;;;;;;;2.20;1.40;;;11.80;79.20;;;;;;5010354;28;20209;-74
2023/11/01 00:06:51;;;;;;;1.53;1.37;;;11.80;78.90;;;;;;5007012;28;20205;-73
2023/11/01 00:09:16;;;;;;;3.73;1.50;;;11.80;78.60;;;;;;5008795;28;20716;-74
2023/11/01 00:11:42;;;;;;;6.83;1.73;;;11.80;78.90;;;;;;5004138;28;20196;-72
2023/11/01 00:14:08;;;;;;;2.87;1.40;;;11.70;79.00;;;;;;5014396;28;20206;-74
2023/11/01 00:16:33;;;;;;;1.47;1.30;;;11.70;79.20;;;;;;5016261;28;20905;-72
2023/11/01 00:18:59;;;;;;;7.00;1.77;;;11.70;79.20;;;;;;5016441;28;20310;-73
2023/11/01 00:21:24;;;;;;;2.40;1.60;;;11.70;79.20;;;;;;5016249;28;20188;-71
2023/11/01 00:23:50;;;;;;;3.37;1.40;;;11.70;79.20;;;;;;5015369;28;20209;-72
2023/11/01 00:26:16;;;;;;;2.27;1.40;;;11.70;79.20;;;;;;5015264;28;20643;-72
2023/11/01 00:28:42;;;;;;;8.30;1.80;;;11.70;79.20;;;;;;5015441;28;20206;-73
2023/11/01 00:31:07;;;;;;;5.60;1.70;;;11.70;79.30;;;;;;5016136;28;20431;-71
2023/11/01 00:33:33;;;;;;;1.83;1.20;;;11.60;79.50;;;;;;5015246;28;20212;-72
2023/11/01 00:35:58;;;;;;;5.47;1.77;;;11.60;79.50;;;;;;5015249;28;20679;-71
2023/11/01 00:38:24;;;;;;;3.83;1.73;;;11.60;79.60;;;;;;5015687;28;20221;-72
2023/11/01 00:40:50;;;;;;;3.47;1.73;;;11.50;79.70;;;;;;5002096;28;20190;-72
2023/11/01 00:43:16;;;;;;;2.50;1.50;;;11.50;79.70;;;;;;5013529;28;20248;-72
2023/11/01 00:45:41;;;;;;;2.07;1.47;;;11.50;79.70;;;;;;4994832;28;20984;-70
2023/11/01 00:48:07;;;;;;;6.50;1.50;;;11.50;79.60;;;;;;4994987;28;20607;-73
2023/11/01 00:50:32;;;;;;;3.30;1.80;;;11.60;79.60;;;;;;4995088;28;20179;-72
2023/11/01 00:52:58;;;;;;;1.80;1.13;;;11.60;79.60;;;;;;4993689;28;20199;-72
2023/11/01 00:55:24;;;;;;;4.80;1.67;;;11.70;79.50;;;;;;4994732;28;20538;-72
2023/11/01 00:57:50;;;;;;;3.87;1.53;;;11.70;79.20;;;;;;4994236;28;20272;-71
2023/11/01 01:00:16;;;;;;;3.23;1.53;;;11.70;79.20;;;;;;4994334;28;20866;-73
2023/11/01 01:02:42;;;;;;;5.07;1.70;;;11.80;79.00;;;;;;4992932;28;20720;-72
2023/11/01 01:05:08;;;;;;;2.53;1.63;;;11.80;79.00;;;;;;5000567;28;20520;-72
2023/11/01 01:07:34;;;;;;;5.20;1.60;;;11.80;78.60;;;;;;4999716;28;20579;-71
2023/11/01 01:10:00;;;;;;;3.00;1.70;;;11.80;78.90;;;;;;4993742;28;20245;-71
2023/11/01 01:12:26;;;;;;;5.20;1.67;;;11.80;79.00;;;;;;5002012;28;20433;-71
2023/11/01 01:14:51;;;;;;;6.20;1.67;;;11.80;79.20;;;;;;4993500;28;20313;-71
2023/11/01 01:17:17;;;;;;;4.53;1.40;;;11.80;79.00;;;;;;4993664;28;20743;-73
2023/11/01 01:19:43;;;;;;;3.30;1.43;;;11.80;78.90;;;;;;5007927;28;20498;-70
2023/11/01 01:22:08;;;;;;;3.43;1.43;;;11.90;78.60;;;;;;5010105;28;20221;-72
2023/11/01 01:24:34;;;;;;;2.10;1.27;;;11.90;78.40;;;;;;5016002;28;20227;-73
2023/11/01 01:26:59;;;;;;;2.80;1.50;;;11.90;78.40;;;;;;5021088;28;20190;-71
2023/11/01 01:29:25;;;;;;;4.17;1.40;;;12.00;78.10;;;;;;5015098;28;20565;-71
2023/11/01 01:31:50;;;;;;;6.43;1.70;;;12.00;78.00;;;;;;5013532;28;20194;-72
2023/11/01 01:34:16;;;;;;;2.67;1.73;;;12.10;77.70;;;;;;4998892;28;20198;-72
2023/11/01 01:36:42;;;;;;;3.53;1.50;;;12.10;77.60;;;;;;5012776;28;20197;-71
2023/11/01 01:39:07;;;;;;;6.70;1.70;;;12.10;77.60;;;;;;5012813;28;20617;-72
2023/11/01 01:41:33;;;;;;;3.20;1.47;;;12.10;77.40;;;;;;5012669;28;20208;-72
2023/11/01 01:43:59;;;;;;;7.80;2.53;;;12.10;77.40;;;;;;5011717;28;20237;-71
2023/11/01 01:46:28;;;;;;;4.93;1.50;;;12.10;77.60;;;;;;5013203;28;20190;-74
2023/11/01 01:48:54;;;;;;;2.90;1.30;;;12.10;77.60;;;;;;5013069;28;20257;-71
2023/11/01 01:51:19;;;;;;;3.37;1.63;;;12.10;77.60;;;;;;5013388;28;20517;-71
2023/11/01 01:53:46;;;;;;;3.70;1.77;;;12.10;77.40;;;;;;5012422;28;20944;-74
2023/11/01 01:56:14;;;;;;;3.30;1.60;;;12.20;77.30;;;;;;5013909;28;20186;-72
2023/11/01 01:58:41;;;;;;;2.20;1.33;;;12.20;77.30;;;;;;5013404;28;20432;-71
2023/11/01 02:01:08;;;;;;;2.83;1.27;;;12.20;77.10;;;;;;5016291;28;20475;-71
2023/11/01 02:03:35;;;;;;;2.63;1.70;;;12.20;77.00;;;;;;5011844;28;20436;-71
2023/11/01 02:06:03;;;;;;;4.00;1.50;;;12.20;77.00;;;;;;5020985;28;20804;-71
2023/11/01 02:08:29;;;;;;;2.13;1.20;;;12.20;77.10;;;;;;4992765;28;20473;-72
2023/11/01 02:10:55;;;;;;;5.10;1.50;;;12.20;77.10;;;;;;4992214;28;20526;-72
2023/11/01 02:13:21;;;;;;;5.33;2.23;;;12.10;77.30;;;;;;4991868;28;20454;-71
2023/11/01 02:15:47;;;;;;;6.83;1.53;;;12.10;77.60;;;;;;4992579;28;20186;-72
2023/11/01 02:18:13;;;;;;;3.70;1.50;;;12.00;77.40;;;;;;4992580;28;20426;-71
2023/11/01 02:20:41;;;;;;;4.70;1.70;;;12.10;77.30;;;;;;4992434;28;20937;-72
2023/11/01 02:23:08;;;;;;;4.07;1.30;;;12.00;77.40;;;;;;5000474;28;20444;-73
2023/11/01 02:25:34;;;;;;;6.03;1.60;;;12.00;77.40;;;;;;5013231;28;20436;-72
2023/11/01 02:28:00;;;;;;;3.10;1.50;;;12.10;77.10;;;;;;5002047;28;20477;-72
2023/11/01 02:30:25;;;;;;;4.53;1.70;;;12.10;77.60;;;;;;5010177;28;20193;-73
2023/11/01 02:32:51;;;;;;;4.10;1.30;;;12.10;77.80;;;;;;5012593;28;20542;-73
2023/11/01 02:35:18;;;;;;;4.20;1.60;;;12.00;78.10;;;;;;5013833;28;20189;-72
2023/11/01 02:37:43;;;;;;;3.50;1.90;;;11.90;78.90;;;;;;5003054;28;20461;-71
2023/11/01 02:40:10;;;;;;;3.43;1.60;;;11.80;79.50;;;;;;5009263;28;20436;-71
2023/11/01 02:42:42;;;;;;;7.80;2.00;;;11.60;79.50;;;;;;5012713;28;20244;-72
2023/11/01 02:45:09;;;;;;;8.47;1.40;;;11.60;79.30;;;;;;5015685;28;20536;-72
2023/11/01 02:47:35;;;;;;;7.77;1.47;;;11.60;79.50;;;;;;5014342;28;20451;-73
2023/11/01 02:50:05;;;;;;;3.33;1.70;;;11.60;79.50;;;;;;5014683;28;20505;-74
2023/11/01 02:52:33;;;;;;;3.73;1.70;;;11.60;79.50;;;;;;5011322;28;20859;-71
2023/11/01 02:55:07;;;;;;;2.53;1.37;;;11.60;79.30;;;;;;5011791;28;20528;-71
2023/11/01 02:57:33;;;;;;;2.23;1.57;;;11.60;79.20;;;;;;5011695;28;20446;-72
2023/11/01 02:59:59;;;;;;;3.37;1.43;;;11.60;78.90;;;;;;5011968;28;20995;-71
2023/11/01 03:02:25;;;;;;;6.67;1.50;;;11.60;79.00;;;;;;5010984;28;20471;-73
2023/11/01 03:04:51;;;;;;;2.70;1.60;;;11.50;78.90;;;;;;5008443;28;20445;-74
2023/11/01 03:07:17;;;;;;;3.10;1.80;;;11.50;78.90;;;;;;4999818;28;20437;-71
2023/11/01 03:09:43;;;;;;;3.07;1.67;;;11.60;78.70;;;;;;4991632;28;20280;-72
2023/11/01 03:12:08;;;;;;;3.90;1.70;;;11.50;78.70;;;;;;4991996;28;20727;-72
2023/11/01 03:14:37;;;;;;;2.90;1.50;;;11.50;79.00;;;;;;5004753;28;20464;-72
2023/11/01 03:17:02;;;;;;;2.27;1.27;;;11.40;79.30;;;;;;5003357;28;20181;-74
2023/11/01 03:19:28;;;;;;;4.80;1.57;;;11.40;79.00;;;;;;5015958;23;20501;-75
2023/11/01 03:21:53;;;;;;;4.23;1.30;;;11.40;79.20;;;;;;4983586;28;20186;-76
2023/11/01 03:24:19;;;;;;;9.07;1.33;;;11.40;79.00;;;;;;4980725;28;20298;-75
2023/11/01 03:26:45;;;;;;;2.17;1.20;;;11.40;78.70;;;;;;4972506;28;20269;-75
2023/11/01 03:29:11;;;;;;;2.10;1.30;;;11.50;78.30;;;;;;4972063;28;20305;-76
2023/11/01 03:31:36;;;;;;;3.07;1.50;;;11.50;78.30;;;;;;4969981;28;20442;-74
2023/11/01 03:34:02;;;;;;;4.03;1.70;;;11.50;78.30;;;;;;4971802;28;20294;-75
2023/11/01 03:36:27;;;;;;;3.90;1.50;;;11.50;78.30;;;;;;4976561;28;20206;-75
2023/11/01 03:38:54;;;;;;;4.93;1.27;;;11.50;78.30;;;;;;4976253;28;20244;-75
2023/11/01 03:41:19;;;;;;;3.57;1.87;;;11.50;78.30;;;;;;4978253;28;20363;-75
2023/11/01 03:43:45;;;;;;;4.30;1.70;;;11.50;78.00;;;;;;4975339;28;20449;-75
2023/11/01 03:46:10;;;;;;;5.63;1.57;;;11.50;78.00;;;;;;4975530;28;20566;-75
2023/11/01 03:48:36;;;;;;;5.10;1.37;;;11.50;78.10;;;;;;4975513;28;20195;-75
2023/11/01 03:51:01;;;;;;;2.53;1.40;;;11.50;78.30;;;;;;4975329;28;20195;-76
2023/11/01 03:53:27;;;;;;;4.40;1.60;;;11.40;78.40;;;;;;4975458;28;20219;-75
2023/11/01 03:55:53;;;;;;;2.13;1.30;;;11.40;78.60;;;;;;4975926;28;20217;-76
2023/11/01 03:58:19;;;;;;;1.60;1.20;;;11.40;78.90;;;;;;4977061;28;20245;-76
2023/11/01 04:00:45;;;;;;;4.90;2.00;;;11.40;79.20;;;;;;4978147;28;20195;-75
2023/11/01 04:03:10;;;;;;;3.00;1.73;;;11.30;79.50;;;;;;4977070;28;20794;-74
2023/11/01 04:05:36;;;;;;;6.13;2.00;;;11.20;79.90;;;;;;4977367;28;20196;-76
2023/11/01 04:08:02;;;;;;;4.10;1.57;;;11.10;80.20;;;;;;4977294;28;20261;-77
2023/11/01 04:10:28;;;;;;;3.03;1.60;;;11.00;80.50;;;;;;4976070;28;20842;-75
2023/11/01 04:12:53;;;;;;;2.80;1.53;;;11.00;80.60;;;;;;4975156;28;20238;-75
2023/11/01 04:15:21;;;;;;;2.30;1.33;;;11.00;80.60;;;;;;4975859;28;20209;-76
2023/11/01 04:17:46;;;;;;;7.33;1.67;;;11.00;80.80;;;;;;4976298;28;20176;-75
2023/11/01 04:20:12;;;;;;;6.93;1.70;;;10.90;80.80;;;;;;4975753;28;20461;-75
2023/11/01 04:22:39;;;;;;;3.50;1.63;;;10.90;80.90;;;;;;4978513;28;20187;-75
2023/11/01 04:25:05;;;;;;;3.33;1.37;;;10.90;80.90;;;;;;4975169;28;20497;-76
2023/11/01 04:27:39;;;;;;;3.73;2.03;;;10.90;81.10;;;;;;4975261;28;20429;-75
2023/11/01 04:30:09;;;;;;;2.77;2.37;;;10.90;81.20;;;;;;4975245;28;20446;-76
2023/11/01 04:32:39;;;;;;;2.37;1.20;;;10.90;81.10;;;;;;4974598;28;20438;-76
2023/11/01 04:35:11;;;;;;;3.60;1.50;;;10.90;80.60;;;;;;4974961;28;20495;-75
2023/11/01 04:37:38;;;;;;;3.00;1.90;;;10.90;80.60;;;;;;4975232;28;20431;-75
2023/11/01 04:40:13;;;;;;;3.83;1.80;;;10.80;81.10;;;;;;4975414;28;20431;-76
2023/11/01 04:42:40;;;;;;;1.93;1.23;;;10.80;81.10;;;;;;4975190;28;20461;-76
2023/11/01 04:45:07;;;;;;;4.50;1.30;;;10.70;81.20;;;;;;4976506;28;20545;-75
2023/11/01 04:47:35;;;;;;;5.77;1.77;;;10.70;81.20;;;;;;4975381;28;20419;-75
2023/11/01 04:50:02;;;;;;;3.20;1.53;;;10.60;81.40;;;;;;4975525;28;20450;-75
2023/11/01 04:52:28;;;;;;;2.90;1.30;;;10.60;81.40;;;;;;4973561;28;20438;-76
2023/11/01 04:54:54;;;;;;;2.70;1.40;;;10.60;81.40;;;;;;4974664;28;20496;-75
2023/11/01 04:57:20;;;;;;;5.77;1.83;;;10.60;81.50;;;;;;4974805;28;20860;-76
2023/11/01 04:59:45;;;;;;;4.20;1.30;;;10.60;81.20;;;;;;4975042;28;20183;-76
2023/11/01 05:02:11;;;;;;;5.07;1.50;;;10.70;81.10;;;;;;4974095;28;20187;-75
2023/11/01 05:04:37;;;;;;;3.63;1.70;;;10.60;81.10;;;;;;4974092;28;20346;-77
2023/11/01 05:07:02;;;;;;;3.00;1.47;;;10.60;81.10;;;;;;4985174;28;20552;-77
2023/11/01 05:09:28;;;;;;;5.17;2.60;;;10.50;81.20;;;;;;4994181;28;20486;-75
2023/11/01 05:11:53;;;;;;;3.40;1.50;;;10.40;81.70;;;;;;4993676;28;20187;-75
2023/11/01 05:14:19;;;;;;;2.63;1.57;;;10.40;81.50;;;;;;4995466;28;20542;-76
2023/11/01 05:16:46;;;;;;;4.27;1.43;;;10.50;81.50;;;;;;4998870;28;20233;-75
2023/11/01 05:19:12;;;;;;;7.10;1.70;;;10.40;81.70;;;;;;4994883;28;20301;-75
2023/11/01 05:21:38;;;;;;;2.80;1.30;;;10.50;81.40;;;;;;4999090;28;20957;-75
2023/11/01 05:24:04;;;;;;;3.53;1.30;;;10.40;81.50;;;;;;5001937;28;20215;-76
2023/11/01 05:26:30;;;;;;;4.07;1.60;;;10.40;81.80;;;;;;5006780;28;20433;-76
2023/11/01 05:28:56;;;;;;;3.60;1.90;;;10.40;81.80;;;;;;5000003;28;20461;-75
2023/11/01 05:31:25;;;;;;;3.37;1.67;;;10.50;81.70;;;;;;4999770;28;20229;-76
2023/11/01 05:33:51;;;;;;;5.50;1.80;;;10.50;81.70;;;;;;4986581;28;20473;-75
2023/11/01 05:36:17;;;;;;;3.90;1.50;;;10.50;81.50;;;;;;4991061;28;20430;-74
2023/11/01 05:38:43;;;;;;;3.97;2.30;;;10.60;81.40;;;;;;4992355;28;20454;-76
2023/11/01 05:41:09;;;;;;;5.90;1.70;;;10.60;81.10;;;;;;4987190;28;20246;-75
2023/11/01 05:43:38;;;;;;;3.70;1.50;;;10.60;80.90;;;;;;4982471;28;20234;-75
2023/11/01 05:46:05;;;;;;;1.87;1.20;;;10.60;80.60;;;;;;4991393;28;20434;-75
2023/11/01 05:48:31;;;;;;;7.20;1.73;;;10.60;80.30;;;;;;4994100;28;20464;-75
2023/11/01 05:51:04;;;;;;;4.40;1.40;;;10.60;80.30;;;;;;4993671;28;20414;-76
2023/11/01 05:53:31;;;;;;;2.10;1.33;;;10.50;80.80;;;;;;4993430;28;20447;-75
2023/11/01 05:55:59;;;;;;;3.03;1.40;;;10.60;80.80;;;;;;4995018;28;20429;-76
2023/11/01 05:58:24;;;;;;;4.07;1.63;;;10.60;80.30;;;;;;4997233;28;20439;-75
2023/11/01 06:00:50;;;;;;;5.53;1.73;;;10.60;80.50;;;;;;4996169;28;20426;-75
2023/11/01 06:03:15;;;;;;;3.57;1.43;;;10.50;80.60;;;;;;4991394;28;20237;-76
2023/11/01 06:05:41;;;;;;;3.00;1.47;;;10.40;80.90;;;;;;4993434;28;20191;-75
2023/11/01 06:08:10;;;;;;;3.40;1.37;;;10.40;81.20;;;;;;4992973;28;20270;-75
2023/11/01 06:10:36;;;;;;;5.63;1.63;;;10.30;81.20;;;;;;4992066;28;20697;-75
2023/11/01 06:13:04;;;;;;;2.00;1.53;;;10.30;81.70;;;;;;4992107;28;20976;-76
2023/11/01 06:15:29;;;;;;;4.00;1.60;;;10.30;81.70;;;;;;4993592;28;20514;-75
2023/11/01 06:17:56;;;;;;;2.90;1.63;;;10.30;81.50;;;;;;4995850;28;20898;-76
2023/11/01 06:20:22;;;;;;;2.70;1.80;;;10.20;81.70;;;;;;4995831;28;20198;-75
2023/11/01 06:22:48;;;;;;;4.03;1.60;;;10.20;81.70;;;;;;4992392;28;20504;-76
2023/11/01 06:25:15;;;;;;;2.40;1.30;;;10.20;81.80;;;;;;4980126;28;20964;-75
2023/11/01 06:27:41;;;;;;;2.70;1.67;;;10.20;81.90;;;;;;4966941;28;20241;-75
2023/11/01 06:30:07;;;;;;;4.40;1.60;;;10.20;82.10;;;;;;4992594;28;20508;-75
2023/11/01 06:32:35;;;;;;;2.67;1.70;;;10.20;82.10;;;;;;4983661;28;20262;-74
2023/11/01 06:35:01;;;;;;;2.90;1.47;;;10.20;82.10;;;;;;4974458;28;20438;-77
2023/11/01 06:37:27;;;;;;;3.00;1.60;;;10.20;81.90;;;;;;4976543;28;20473;-75
2023/11/01 06:39:52;;;;;;;1.97;1.30;;;10.30;81.90;;;;;;4975316;28;20438;-76
2023/11/01 06:42:18;;;;;;;4.40;1.60;;;10.30;81.70;;;;;;4974342;28;20254;-76
2023/11/01 06:44:44;;;;;;;2.83;1.80;;;10.30;81.20;;;;;;4973569;28;20217;-76
2023/11/01 06:47:10;;;;;;;2.40;1.80;;;10.30;81.20;;;;;;4974143;28;20191;-75
2023/11/01 06:49:38;;;;;;;3.97;1.90;;;10.30;81.50;;;;;;4975328;28;20466;-77
2023/11/01 06:52:04;;;;;;;2.20;1.70;;;10.30;81.20;;;;;;4976737;28;20266;-76
2023/11/01 06:54:30;;;;;;;5.20;2.10;;;10.20;81.70;;;;;;4974132;28;20512;-76
2023/11/01 06:56:56;;;;;;;2.47;1.70;;;10.10;81.80;;;;;;4974508;28;20418;-76
2023/11/01 06:59:22;;;;;;;13.30;5.43;;;10.20;82.10;;;;;;4973544;28;20194;-77
2023/11/01 07:01:47;;;;;;;3.03;2.00;;;10.20;82.20;;;;;;4973408;28;20964;-77
2023/11/01 07:04:13;;;;;;;7.47;2.10;;;10.20;82.40;;;;;;4974877;28;20477;-76
2023/11/01 07:06:41;;;;;;;3.67;2.20;;;10.30;82.40;;;;;;4976910;28;20211;-75
2023/11/01 07:09:07;;;;;;;5.90;2.00;;;10.40;81.90;;;;;;4977816;28;20742;-76
2023/11/01 07:11:33;;;;;;;4.57;2.00;;;10.40;81.10;;;;;;4977334;28;20445;-75
2023/11/01 07:13:59;;;;;;;7.37;2.17;;;10.40;81.40;;;;;;4975426;28;20450;-75
2023/11/01 07:16:24;;;;;;;2.47;1.70;;;10.40;81.40;;;;;;4981059;28;20246;-76
2023/11/01 07:18:50;;;;;;;4.10;1.67;;;10.40;81.20;;;;;;4980146;28;20440;-76
2023/11/01 07:21:16;;;;;;;5.50;1.90;;;10.40;81.20;;;;;;4981913;28;20269;-76
2023/11/01 07:23:41;;;;;;;3.47;1.80;;;10.40;81.40;;;;;;4976905;28;20516;-76
2023/11/01 07:26:07;;;;;;;3.33;1.93;;;10.50;81.20;;;;;;4979877;28;20237;-77
2023/11/01 07:28:34;;;;;;;3.60;2.10;;;10.50;81.10;;;;;;4977540;28;20203;-76
2023/11/01 07:30:59;;;;;;;5.73;1.90;;;10.60;80.80;;;;;;4976995;28;20446;-75
2023/11/01 07:33:25;;;;;;;3.40;1.90;;;10.60;80.80;;;;;;4976848;28;20938;-76
2023/11/01 07:35:50;;;;;;;3.57;1.90;;;10.60;80.60;;;;;;4977022;28;20191;-75
2023/11/01 07:38:16;;;;;;;2.20;1.60;;;10.60;80.90;;;;;;4976778;28;20191;-77
2023/11/01 07:40:42;;;;;;;3.80;2.47;;;10.60;81.10;;;;;;4977589;28;20238;-75
2023/11/01 07:43:07;;;;;;;4.30;2.40;;;10.70;81.10;;;;;;4978405;28;20215;-75
2023/11/01 07:45:33;;;;;;;3.70;1.73;;;10.70;80.80;;;;;;4977892;28;20191;-76
2023/11/01 07:47:58;;;;;;;4.10;2.13;;;10.70;80.60;;;;;;4980231;28;20574;-76
2023/11/01 07:50:25;;;;;;;4.27;2.00;;;10.80;80.60;;;;;;4979151;28;20195;-76
2023/11/01 07:52:50;;;;;;;5.77;1.93;;;10.90;80.50;;;;;;4978551;28;20286;-76
2023/11/01 07:55:16;;;;;;;6.30;2.10;;;11.00;80.20;;;;;;4978918;28;20464;-76
2023/11/01 07:57:41;;;;;;;2.77;1.60;;;11.00;79.70;;;;;;4980082;28;20289;-76
2023/11/01 08:00:07;;;;;;;4.17;2.00;;;10.90;79.60;;;;;;4979604;28;20302;-76
2023/11/01 08:02:33;;;;;;;4.83;2.10;;;11.00;79.70;;;;;;4979960;28;20202;-75
2023/11/01 08:04:59;;;;;;;2.03;1.40;;;11.00;79.60;;;;;;4981012;28;20447;-76
2023/11/01 08:07:25;;;;;;;4.57;2.20;;;11.10;79.60;;;;;;4982519;28;20305;-76
2023/11/01 08:09:51;;;;;;;3.77;1.80;;;11.30;79.50;;;;;;4982891;28;20474;-75
2023/11/01 08:12:17;;;;;;;3.27;2.00;;;11.30;78.70;;;;;;4983733;28;20461;-78
2023/11/01 08:14:43;;;;;;;2.13;1.70;;;11.30;78.40;;;;;;4983841;28;20893;-75
2023/11/01 08:17:09;;;;;;;3.83;1.93;;;11.40;78.40;;;;;;4984135;28;20461;-75
2023/11/01 08:19:36;;;;;;;7.10;1.83;;;11.50;78.10;;;;;;4985060;28;20261;-76
2023/11/01 08:22:02;;;;;;;4.93;2.10;;;11.60;78.00;;;;;;4986087;28;20441;-76
2023/11/01 08:24:27;;;;;;;5.33;1.90;;;11.70;77.60;;;;;;4986288;28;20451;-75
2023/11/01 08:26:53;;;;;;;4.17;1.77;;;11.80;77.00;;;;;;4986142;28;20441;-75
2023/11/01 08:29:18;;;;;;;5.27;2.20;;;11.90;76.50;;;;;;4984056;28;20273;-76
2023/11/01 08:31:44;;;;;;;3.37;1.63;;;12.00;76.50;;;;;;4986088;28;20187;-76
2023/11/01 08:34:10;;;;;;;5.13;1.77;;;12.00;76.70;;;;;;4986596;28;20286;-76
2023/11/01 08:36:36;;;;;;;3.20;2.07;;;12.10;76.70;;;;;;4985239;28;20423;-75
2023/11/01 08:39:01;;;;;;;4.23;1.67;;;12.10;76.80;;;;;;4983450;28;20544;-75
2023/11/01 08:41:27;;;;;;;6.33;1.90;;;12.20;76.70;;;;;;4984005;28;20207;-75
2023/11/01 08:43:54;;;;;;;4.23;1.63;;;12.30;76.70;;;;;;4985505;28;20215;-76
2023/11/01 08:46:20;;;;;;;5.50;1.97;;;12.30;76.50;;;;;;4983290;28;20249;-74
2023/11/01 08:48:45;;;;;;;3.60;1.90;;;12.40;76.20;;;;;;4981378;28;20517;-75
2023/11/01 08:51:11;;;;;;;4.37;2.23;;;12.40;75.70;;;;;;4994249;28;20194;-75
2023/11/01 08:53:37;;;;;;;3.33;1.70;;;12.50;75.50;;;;;;5001264;28;20291;-75
2023/11/01 08:56:03;;;;;;;3.43;1.70;;;12.60;75.50;;;;;;5000315;28;20210;-76
2023/11/01 08:58:30;;;;;;;6.07;1.67;;;12.60;74.90;;;;;;5000334;28;20183;-76
2023/11/01 09:00:55;;;;;;;3.73;1.90;;;12.70;74.50;;;;;;5000216;28;20508;-76
2023/11/01 09:03:24;;;;;;;4.50;1.90;;;12.80;74.50;;;;;;5001304;28;20468;-76
2023/11/01 09:05:49;;;;;;;2.40;1.43;;;12.80;73.90;;;;;;4998535;28;20273;-76
2023/11/01 09:08:15;;;;;;;4.03;1.30;;;13.00;72.00;;;;;;4997737;28;20505;-76
2023/11/01 09:10:40;;;;;;;3.27;1.30;;;13.00;71.70;;;;;;4995656;28;20203;-75
2023/11/01 09:13:07;;;;;;;1.53;1.23;;;13.20;71.10;;;;;;4996117;28;20186;-75
2023/11/01 09:15:33;;;;;;;4.07;1.60;;;13.30;70.70;;;;;;5002388;28;20187;-75
2023/11/01 09:17:58;;;;;;;5.97;1.60;;;13.50;70.20;;;;;;4997403;28;20413;-76
2023/11/01 09:20:24;;;;;;;2.37;1.40;;;13.50;70.40;;;;;;4994470;28;20744;-76
2023/11/01 09:22:50;;;;;;;1.73;1.13;;;13.50;69.90;;;;;;4994183;28;20620;-74
2023/11/01 09:25:15;;;;;;;1.50;1.20;;;13.60;69.90;;;;;;4996421;28;20197;-75
2023/11/01 09:27:41;;;;;;;2.87;1.10;;;13.70;69.10;;;;;;4997855;28;20643;-74
2023/11/01 09:30:08;;;;;;;2.17;1.33;;;13.80;68.80;;;;;;4994222;28;20829;-74
2023/11/01 09:32:35;;;;;;;2.90;1.77;;;13.90;68.50;;;;;;4985181;28;20270;-74
2023/11/01 09:35:01;;;;;;;12.50;2.30;;;13.90;68.50;;;;;;4975343;28;20446;-77
2023/11/01 09:37:26;;;;;;;2.20;1.20;;;14.10;68.50;;;;;;4974176;28;20478;-76
2023/11/01 09:39:52;;;;;;;3.50;1.40;;;14.20;67.20;;;;;;4974087;28;20191;-77
2023/11/01 09:42:21;;;;;;;4.60;1.10;;;14.30;66.70;;;;;;4973706;28;20186;-74
2023/11/01 09:44:55;;;;;;;2.43;1.20;;;14.40;66.60;;;;;;4973989;28;20242;-76
2023/11/01 09:47:22;;;;;;;3.17;1.37;;;14.50;66.90;;;;;;4974645;28;20497;-76
2023/11/01 09:49:49;;;;;;;2.30;1.23;;;14.60;66.30;;;;;;4974219;28;20561;-75
2023/11/01 09:52:15;;;;;;;3.00;1.00;;;14.60;65.80;;;;;;4974220;28;20435;-77
2023/11/01 09:54:40;;;;;;;4.00;1.60;;;14.60;66.00;;;;;;4973744;28;20815;-74
2023/11/01 09:57:09;;;;;;;4.40;1.63;;;14.70;66.10;;;;;;4975120;28;20608;-74
2023/11/01 09:59:37;;;;;;;1.87;1.07;;;14.80;65.80;;;;;;4973997;28;20286;-74
2023/11/01 10:02:03;;;;;;;3.23;1.30;;;14.90;65.70;;;;;;4974238;28;20518;-74
2023/11/01 10:04:30;;;;;;;3.93;1.30;;;14.90;65.70;;;;;;4974780;28;20461;-76
2023/11/01 10:06:56;;;;;;;3.87;1.23;;;15.00;65.60;;;;;;4975009;28;20917;-74
2023/11/01 10:09:21;;;;;;;2.60;1.10;;;15.00;65.70;;;;;;4974675;28;20553;-75
2023/11/01 10:11:47;;;;;;;2.60;1.20;;;15.10;65.60;;;;;;4974223;28;20184;-76
2023/11/01 10:14:25;;;;;;;3.20;1.23;;;15.10;65.30;;;;;;4973647;28;20211;-75
2023/11/01 10:16:51;;;;;;;2.80;0.97;;;15.20;65.00;;;;;;4976764;28;20279;-76
2023/11/01 10:19:17;;;;;;;3.00;1.07;;;15.50;64.70;;;;;;4976764;28;20482;-75
2023/11/01 10:21:42;;;;;;;3.17;1.20;;;15.70;64.80;;;;;;4974817;28;20183;-75
2023/11/01 10:24:08;;;;;;;2.80;1.10;;;15.90;64.80;;;;;;4975093;28;20220;-76
2023/11/01 10:26:35;;;;;;;1.40;1.20;;;15.90;64.40;;;;;;4975759;28;20211;-73
2023/11/01 10:29:02;;;;;;;1.70;1.00;;;16.00;64.70;;;;;;4973570;28;20261;-75
2023/11/01 10:31:28;;;;;;;1.60;1.10;;;16.10;64.40;;;;;;4975017;28;20468;-74
2023/11/01 10:33:54;;;;;;;2.60;1.20;;;16.10;64.20;;;;;;4976823;28;20468;-74
2023/11/01 10:36:20;;;;;;;5.73;1.30;;;16.40;64.20;;;;;;4987569;28;20193;-74
2023/11/01 10:38:46;;;;;;;2.07;1.30;;;16.60;63.70;;;;;;4993886;28;20194;-75
2023/11/01 10:41:12;;;;;;;2.50;1.10;;;16.70;63.70;;;;;;4993375;28;20439;-75
2023/11/01 10:43:38;;;;;;;2.93;1.10;;;16.70;62.90;;;;;;4993423;28;20448;-74
2023/11/01 10:46:03;;;;;;;2.47;1.13;;;16.70;63.10;;;;;;4994113;28;20923;-74
2023/11/01 10:48:29;;;;;;;2.77;0.90;;;17.00;62.90;;;;;;4993816;28;20211;-75
2023/11/01 10:50:58;;;;;;;2.00;1.00;;;17.20;62.60;;;;;;4992044;28;20194;-75
2023/11/01 10:53:24;;;;;;;3.40;1.40;;;17.30;62.30;;;;;;4992373;28;20236;-76
2023/11/01 10:55:51;;;;;;;2.03;1.20;;;17.60;62.20;;;;;;4992955;28;20647;-75
2023/11/01 10:58:23;;;;;;;1.97;0.97;;;17.60;60.70;;;;;;4992821;28;20422;-74
2023/11/01 11:00:58;;;;;;;7.93;1.60;;;17.60;60.90;;;;;;4992183;28;20426;-75
2023/11/01 11:03:28;;;;;;;2.67;1.37;;;17.50;60.90;;;;;;4990312;28;21215;-74
2023/11/01 11:05:56;;;;;;;1.63;1.10;;;17.30;61.20;;;;;;4992161;28;20418;-75
2023/11/01 11:08:21;;;;;;;4.10;1.20;;;16.80;62.20;;;;;;4993778;28;20489;-76
2023/11/01 11:10:47;;;;;;;1.80;1.00;;;16.80;62.60;;;;;;4992095;28;20425;-74
2023/11/01 11:13:16;;;;;;;1.83;1.03;;;16.80;62.60;;;;;;4991882;28;20241;-74
2023/11/01 11:15:56;;;;;;;6.50;2.33;;;17.00;62.50;;;;;;4992469;28;20338;-75
2023/11/01 11:18:24;;;;;;;3.60;1.37;;;17.30;62.30;;;;;;4994157;28;20436;-75
2023/11/01 11:20:53;;;;;;;2.37;1.27;;;17.50;61.90;;;;;;5009563;28;20483;-73
2023/11/01 11:23:21;;;;;;;1.30;0.90;;;17.60;61.70;;;;;;4993533;28;20968;-74
2023/11/01 11:25:50;;;;;;;2.70;1.17;;;17.60;61.20;;;;;;4994847;28;20444;-74
2023/11/01 11:28:18;;;;;;;4.50;1.27;;;17.50;61.30;;;;;;4999260;28;21019;-74
2023/11/01 11:30:44;;;;;;;3.50;1.23;;;17.40;61.60;;;;;;4996448;28;20441;-75
2023/11/01 11:33:10;;;;;;;1.73;1.30;;;17.60;61.70;;;;;;4979681;28;20447;-73
2023/11/01 11:35:36;;;;;;;4.50;1.27;;;17.80;61.50;;;;;;4972896;28;20667;-74
2023/11/01 11:38:29;;;;;;;1.87;0.90;;;17.80;61.30;;;;;;4973109;28;20549;-74
2023/11/01 11:41:11;;;;;;;2.73;1.20;;;17.90;60.70;;;;;;4967812;28;20200;-75
2023/11/01 11:44:08;;;;;;;3.10;1.30;;;17.90;60.40;;;;;;4971968;28;20452;-75
2023/11/01 11:46:42;;;;;;;1.80;1.10;;;17.80;60.10;;;;;;4972694;28;20437;-74
2023/11/01 11:49:24;;;;;;;4.27;1.23;;;17.70;60.30;;;;;;4973227;28;20465;-73
2023/11/01 11:51:52;;;;;;;2.37;1.23;;;17.50;60.90;;;;;;4972412;28;20525;-74
2023/11/01 11:54:19;;;;;;;1.90;0.93;;;17.50;61.30;;;;;;4971654;28;20439;-74
2023/11/01 11:56:45;;;;;;;2.67;1.30;;;17.50;61.20;;;;;;4972092;28;20457;-75
2023/11/01 11:59:18;;;;;;;1.53;0.90;;;17.30;61.00;;;;;;4972361;28;20429;-75
2023/11/01 12:01:43;;;;;;;3.97;1.70;;;17.20;61.60;;;;;;4974716;28;20418;-76
2023/11/01 12:04:10;;;;;;;3.33;1.83;;;17.20;61.90;;;;;;4975325;28;20446;-75
2023/11/01 12:06:44;;;;;;;5.63;2.90;;;17.20;62.00;;;;;;4975600;28;20425;-75
2023/11/01 12:09:20;;;;;;;3.30;1.40;;;17.20;62.20;;;;;;4976913;28;20215;-75
2023/11/01 12:11:50;;;;;;;3.93;1.53;;;17.20;62.30;;;;;;4989726;28;20436;-73
2023/11/01 12:14:21;;;;;;;2.47;1.40;;;17.40;62.30;;;;;;4996079;28;20468;-75
2023/11/01 12:16:47;;;;;;;2.40;1.20;;;17.50;62.20;;;;;;4995476;28;20434;-75
2023/11/01 12:19:23;;;;;;;1.87;1.33;;;17.60;61.70;;;;;;4994704;28;20528;-74
2023/11/01 12:21:53;;;;;;;3.00;1.03;;;17.80;61.60;;;;;;4996838;28;20771;-75
2023/11/01 12:24:21;;;;;;;2.63;1.10;;;17.90;61.20;;;;;;4996885;28;20438;-75
2023/11/01 12:26:56;;;;;;;2.60;1.47;;;18.00;61.00;;;;;;4996224;28;20423;-75
2023/11/01 12:29:23;;;;;;;2.40;1.40;;;18.30;61.20;;;;;;4998000;28;20491;-74
2023/11/01 12:32:05;;;;;;;2.20;1.33;;;18.50;61.30;;;;;;4996630;28;20497;-74
2023/11/01 12:34:35;;;;;;;1.77;1.27;;;18.90;60.30;;;;;;4975731;28;20519;-75
2023/11/01 12:37:04;;;;;;;2.30;1.17;;;19.10;59.90;;;;;;4975608;28;20433;-74
2023/11/01 12:39:31;;;;;;;2.80;1.53;;;19.30;58.40;;;;;;4975640;28;20420;-74
2023/11/01 12:41:57;;;;;;;2.90;1.33;;;19.10;58.70;;;;;;4975150;28;20433;-76
2023/11/01 12:44:23;;;;;;;3.07;1.40;;;19.00;59.10;;;;;;4975989;28;20465;-75
2023/11/01 12:46:49;;;;;;;4.40;1.30;;;18.80;59.50;;;;;;4976897;28;20279;-76